createdAt,value
2022-10-02T00:00:31.913Z,4.72
2022-10-02T00:03:10.682Z,3.20
2022-10-02T00:05:42.015Z,6.63
2022-10-02T00:08:25.868Z,6.53
2022-10-02T00:10:56.000Z,3.30
2022-10-02T00:13:31.341Z,3.88
2022-10-02T00:15:58.128Z,4.45
2022-10-02T00:18:29.377Z,4.78
2022-10-02T00:21:05.175Z,4.32
2022-10-02T00:23:52.315Z,3.58
2022-10-02T00:26:31.944Z,7.22
2022-10-02T00:29:10.657Z,4.88
2022-10-02T00:31:55.898Z,5.80
2022-10-02T00:34:34.413Z,4.00
2022-10-02T00:39:39.467Z,6.32
2022-10-02T00:42:32.893Z,4.20
2022-10-02T00:45:17.757Z,5.78
2022-10-02T00:48:40.923Z,5.50
2022-10-02T00:51:34.443Z,3.53
2022-10-02T00:54:18.919Z,4.55
2022-10-02T00:57:15.655Z,6.80
2022-10-02T01:00:03.535Z,5.93
2022-10-02T01:02:36.304Z,4.10
2022-10-02T01:05:05.984Z,6.10
2022-10-02T01:07:32.653Z,5.53
2022-10-02T01:09:59.348Z,6.82
2022-10-02T01:12:26.012Z,9.00
2022-10-02T01:14:52.613Z,9.77
2022-10-02T01:17:28.812Z,5.07
2022-10-02T01:19:56.168Z,5.25
2022-10-02T01:22:29.380Z,13.90
2022-10-02T01:25:01.230Z,5.47
2022-10-02T01:27:27.983Z,4.00
2022-10-02T01:30:01.481Z,16.70
2022-10-02T01:32:31.648Z,11.20
2022-10-02T01:34:58.563Z,4.95
2022-10-02T01:37:28.324Z,11.25
2022-10-02T01:39:56.923Z,4.45
2022-10-02T01:44:50.039Z,9.05
2022-10-02T01:47:19.964Z,6.93
2022-10-02T01:50:10.481Z,6.63
2022-10-02T01:52:58.263Z,5.25
2022-10-02T01:55:54.439Z,8.18
2022-10-02T01:58:30.079Z,16.98
2022-10-02T02:01:08.729Z,23.02
2022-10-02T02:03:54.932Z,38.30
2022-10-02T02:06:31.308Z,28.85
2022-10-02T02:09:07.492Z,27.88
2022-10-02T02:11:35.828Z,21.13
2022-10-02T02:14:17.644Z,27.85
2022-10-02T02:16:47.927Z,20.88
2022-10-02T02:19:25.487Z,24.55
2022-10-02T02:21:58.202Z,22.95
2022-10-02T02:24:33.059Z,24.48
2022-10-02T02:27:01.670Z,20.95
2022-10-02T02:31:56.744Z,20.05
2022-10-02T02:34:28.448Z,21.42
2022-10-02T02:36:57.952Z,25.02
2022-10-02T02:39:38.094Z,29.98
2022-10-02T02:42:07.617Z,17.77
2022-10-02T02:44:39.207Z,14.63
2022-10-02T02:47:19.913Z,14.77
2022-10-02T02:50:00.597Z,15.82
2022-10-02T02:52:32.587Z,21.48
2022-10-02T02:55:05.556Z,19.85
2022-10-02T02:57:37.420Z,26.13
2022-10-02T03:00:05.577Z,12.38
2022-10-02T03:02:32.978Z,12.38
2022-10-02T03:04:59.627Z,10.65
2022-10-02T03:07:26.240Z,14.20
2022-10-02T03:10:09.661Z,11.30
2022-10-02T03:12:48.861Z,14.18
2022-10-02T03:15:38.133Z,11.02
2022-10-02T03:18:16.872Z,14.32
2022-10-02T03:20:57.930Z,14.77
2022-10-02T03:23:50.143Z,14.77
2022-10-02T03:26:35.334Z,11.52
2022-10-02T03:29:05.497Z,13.05
2022-10-02T03:31:33.061Z,13.80
2022-10-02T03:34:00.640Z,14.25
2022-10-02T03:36:27.612Z,15.00
2022-10-02T03:39:23.095Z,11.20
2022-10-02T03:41:44.628Z,13.05
2022-10-02T03:44:11.203Z,13.70
2022-10-02T03:46:38.525Z,18.88
2022-10-02T03:49:05.372Z,12.55
2022-10-02T03:51:31.955Z,12.25
2022-10-02T03:53:58.626Z,13.60
2022-10-02T03:56:39.550Z,13.43
2022-10-02T03:59:12.307Z,11.85
2022-10-02T04:01:46.879Z,14.07
2022-10-02T04:04:18.923Z,11.60
2022-10-02T04:06:48.382Z,14.15
2022-10-02T04:09:22.279Z,16.38
2022-10-02T04:12:01.464Z,13.55
2022-10-02T04:14:36.005Z,17.42
2022-10-02T04:17:08.975Z,11.55
2022-10-02T04:19:46.355Z,12.45
2022-10-02T04:22:23.231Z,16.75
2022-10-02T04:24:56.933Z,19.63
2022-10-02T04:27:37.183Z,14.63
2022-10-02T04:30:16.880Z,14.43
2022-10-02T04:32:43.627Z,20.20
2022-10-02T04:35:16.412Z,12.05
2022-10-02T04:38:20.116Z,11.10
2022-10-02T04:41:17.724Z,13.20
2022-10-02T04:43:53.772Z,15.43
2022-10-02T04:46:42.065Z,11.75
2022-10-02T04:49:42.760Z,13.85
2022-10-02T04:52:31.016Z,16.92
2022-10-02T04:55:07.325Z,12.82
2022-10-02T04:57:52.875Z,10.50
2022-10-02T05:00:24.072Z,13.98
2022-10-02T05:03:16.400Z,12.85
2022-10-02T05:06:10.776Z,11.85
2022-10-02T05:08:57.257Z,10.80
2022-10-02T05:11:29.749Z,10.60
2022-10-02T05:14:14.460Z,12.75
2022-10-02T05:17:01.568Z,10.18
2022-10-02T05:19:47.100Z,12.25
2022-10-02T05:22:36.909Z,13.23
2022-10-02T05:25:22.330Z,11.50
2022-10-02T05:28:10.884Z,13.93
2022-10-02T05:30:50.283Z,11.77
2022-10-02T05:33:35.839Z,13.23
2022-10-02T05:36:31.626Z,13.93
2022-10-02T05:39:04.900Z,10.80
2022-10-02T05:41:43.256Z,10.00
2022-10-02T05:44:17.156Z,10.60
2022-10-02T05:46:51.265Z,10.85
2022-10-02T05:49:20.993Z,7.20
2022-10-02T05:51:59.312Z,8.93
2022-10-02T05:54:44.443Z,7.05
2022-10-02T05:57:11.944Z,8.65
2022-10-02T05:59:48.343Z,13.98
2022-10-02T06:02:57.413Z,11.68
2022-10-02T06:05:30.153Z,6.57
2022-10-02T06:07:58.870Z,11.13
2022-10-02T06:10:29.356Z,9.95
2022-10-02T06:13:00.136Z,9.18
2022-10-02T06:15:32.043Z,12.35
2022-10-02T06:18:05.564Z,15.05
2022-10-02T06:20:40.847Z,16.90
2022-10-02T06:23:14.449Z,13.05
2022-10-02T06:26:05.367Z,11.75
2022-10-02T06:28:42.049Z,12.05
2022-10-02T06:31:08.601Z,8.52
2022-10-02T06:33:35.218Z,9.73
2022-10-02T06:36:18.012Z,7.78
2022-10-02T06:39:20.097Z,12.25
2022-10-02T06:42:16.363Z,19.05
2022-10-02T06:45:06.244Z,22.10
2022-10-02T06:47:57.941Z,31.10
2022-10-02T06:50:35.532Z,22.10
2022-10-02T06:53:08.322Z,34.10
2022-10-02T06:56:08.537Z,21.73
2022-10-02T06:58:40.645Z,27.83
2022-10-02T07:01:30.182Z,30.30
2022-10-02T07:04:29.297Z,23.30
2022-10-02T07:07:21.489Z,19.48
2022-10-02T07:10:16.385Z,23.60
2022-10-02T07:13:07.756Z,35.97
2022-10-02T07:15:57.066Z,25.50
2022-10-02T07:18:31.044Z,25.92
2022-10-02T07:21:14.659Z,29.52
2022-10-02T07:24:02.429Z,33.72
2022-10-02T07:26:54.120Z,23.40
2022-10-02T07:29:48.632Z,24.50
2022-10-02T07:32:18.810Z,34.25
2022-10-02T07:35:04.148Z,38.83
2022-10-02T07:37:56.489Z,19.35
2022-10-02T07:40:32.292Z,28.08
2022-10-02T07:43:11.048Z,32.88
2022-10-02T07:45:44.495Z,27.25
2022-10-02T07:48:32.387Z,25.75
2022-10-02T07:51:39.025Z,26.75
2022-10-02T07:54:36.353Z,29.20
2022-10-02T07:57:22.050Z,20.40
2022-10-02T07:59:49.476Z,28.73
2022-10-02T08:02:29.253Z,19.42
2022-10-02T08:04:58.821Z,22.38
2022-10-02T08:07:25.860Z,23.13
2022-10-02T08:09:53.515Z,22.63
2022-10-02T08:12:34.107Z,29.90
2022-10-02T08:15:02.112Z,29.70
2022-10-02T08:17:34.553Z,21.75
2022-10-02T08:20:37.742Z,29.05
2022-10-02T08:23:07.379Z,19.65
2022-10-02T08:25:42.435Z,18.70
2022-10-02T08:28:20.438Z,33.42
2022-10-02T08:30:47.136Z,22.80
2022-10-02T08:33:21.985Z,19.35
2022-10-02T08:35:48.536Z,17.38
2022-10-02T08:39:00.318Z,18.80
2022-10-02T08:41:47.960Z,22.35
2022-10-02T08:44:36.576Z,25.65
2022-10-02T08:47:28.893Z,25.67
2022-10-02T08:50:33.187Z,19.80
2022-10-02T08:53:02.681Z,19.98
2022-10-02T08:55:53.348Z,17.17
2022-10-02T08:58:35.088Z,21.45
2022-10-02T09:01:29.020Z,20.65
2022-10-02T09:04:38.236Z,20.70
2022-10-02T09:07:28.325Z,19.27
2022-10-02T09:10:00.686Z,22.27
2022-10-02T09:12:42.457Z,14.27
2022-10-02T09:15:16.236Z,16.50
2022-10-02T09:17:48.479Z,17.67
2022-10-02T09:20:39.491Z,17.83
2022-10-02T09:23:43.683Z,18.30
2022-10-02T09:26:39.975Z,20.38
2022-10-02T09:29:20.145Z,15.13
2022-10-02T09:31:56.036Z,21.58
2022-10-02T09:34:41.140Z,13.73
2022-10-02T09:37:28.325Z,18.08
2022-10-02T09:40:34.984Z,14.40
2022-10-02T09:43:07.617Z,17.48
2022-10-02T09:45:55.801Z,19.25
2022-10-02T09:48:22.493Z,19.15
2022-10-02T09:51:20.293Z,16.75
2022-10-02T09:54:24.149Z,16.08
2022-10-02T09:57:31.889Z,13.60
2022-10-02T10:00:04.938Z,14.60
2022-10-02T10:03:02.110Z,12.38
2022-10-02T10:05:35.001Z,14.15
2022-10-02T10:08:36.357Z,16.13
2022-10-02T10:11:02.914Z,8.30
2022-10-02T10:13:35.383Z,14.30
2022-10-02T10:16:08.876Z,9.88
2022-10-02T10:19:03.648Z,14.32
2022-10-02T10:22:18.449Z,18.70
2022-10-02T10:25:10.719Z,15.68
2022-10-02T10:27:52.673Z,13.52
2022-10-02T10:30:31.358Z,12.68
2022-10-02T10:33:52.381Z,13.48
2022-10-02T10:37:03.628Z,10.63
2022-10-02T10:40:07.448Z,12.93
2022-10-02T10:43:08.465Z,11.10
2022-10-02T10:45:51.165Z,9.95
2022-10-02T10:48:18.710Z,12.30
2022-10-02T10:51:14.374Z,14.63
2022-10-02T10:54:16.269Z,11.98
2022-10-02T10:56:50.588Z,12.60
2022-10-02T10:59:42.435Z,9.23
2022-10-02T11:02:15.175Z,10.50
2022-10-02T11:04:55.761Z,11.60
2022-10-02T11:07:29.676Z,10.65
2022-10-02T11:10:17.724Z,10.25
2022-10-02T11:12:56.864Z,8.95
2022-10-02T11:15:53.736Z,9.73
2022-10-02T11:18:42.927Z,6.32
2022-10-02T11:21:58.266Z,9.88
2022-10-02T11:24:55.832Z,7.93
2022-10-02T11:27:53.646Z,10.55
2022-10-02T11:30:41.681Z,12.00
2022-10-02T11:33:10.834Z,5.88
2022-10-02T11:35:48.291Z,7.03
2022-10-02T11:38:42.259Z,8.55
2022-10-02T11:41:11.571Z,8.35
2022-10-02T11:44:00.380Z,15.38
2022-10-02T11:46:44.224Z,8.65
2022-10-02T11:49:26.410Z,8.95
2022-10-02T11:52:11.567Z,5.47
2022-10-02T11:54:38.064Z,9.32
2022-10-02T11:57:16.750Z,11.48
2022-10-02T12:00:09.249Z,8.15
2022-10-02T12:02:44.254Z,12.43
2022-10-02T12:05:24.153Z,7.43
2022-10-02T12:08:09.571Z,5.90
2022-10-02T12:10:53.811Z,7.32
2022-10-02T12:13:29.200Z,8.88
2022-10-02T12:16:21.839Z,6.30
2022-10-02T12:18:48.546Z,8.27
2022-10-02T12:22:01.262Z,5.72
2022-10-02T12:24:58.910Z,13.32
2022-10-02T12:27:43.809Z,6.78
2022-10-02T12:30:20.295Z,10.35
2022-10-02T12:33:08.186Z,8.38
2022-10-02T12:35:38.039Z,8.27
2022-10-02T12:38:22.908Z,6.15
2022-10-02T12:41:03.560Z,8.82
2022-10-02T12:43:52.493Z,10.60
2022-10-02T12:46:49.881Z,7.05
2022-10-02T12:49:53.165Z,6.33
2022-10-02T12:52:31.916Z,6.10
2022-10-02T12:55:36.169Z,7.32
2022-10-02T12:58:17.916Z,12.93
2022-10-02T13:01:05.730Z,5.82
2022-10-02T13:03:38.551Z,6.18
2022-10-02T13:06:23.585Z,4.13
2022-10-02T13:08:56.121Z,9.32
2022-10-02T13:11:32.899Z,7.18
2022-10-02T13:14:35.021Z,6.45
2022-10-02T13:17:10.277Z,9.25
2022-10-02T13:19:49.808Z,6.65
2022-10-02T13:22:34.554Z,6.55
2022-10-02T13:25:16.190Z,8.55
2022-10-02T13:27:56.195Z,2.33
2022-10-02T13:30:24.165Z,6.40
2022-10-02T13:33:10.860Z,8.05
2022-10-02T13:36:16.100Z,4.10
2022-10-02T13:38:54.289Z,7.30
2022-10-02T13:41:32.648Z,5.68
2022-10-02T13:44:12.258Z,7.95
2022-10-02T13:47:06.893Z,9.10
2022-10-02T13:49:38.012Z,8.93
2022-10-02T13:52:25.049Z,7.57
2022-10-02T13:55:17.309Z,6.68
2022-10-02T13:57:55.944Z,8.15
2022-10-02T14:00:37.718Z,6.10
2022-10-02T14:03:07.341Z,8.10
2022-10-02T14:05:45.658Z,9.48
2022-10-02T14:08:44.534Z,10.70
2022-10-02T14:11:23.064Z,11.02
2022-10-02T14:16:47.814Z,8.30
2022-10-02T14:19:24.672Z,7.82
2022-10-02T14:22:28.980Z,8.18
2022-10-02T14:25:01.491Z,12.30
2022-10-02T14:27:46.953Z,11.10
2022-10-02T14:30:20.545Z,12.82
2022-10-02T14:33:06.463Z,4.32
2022-10-02T14:35:34.896Z,10.70
2022-10-02T14:38:19.527Z,10.73
2022-10-02T14:40:52.830Z,7.75
2022-10-02T14:43:44.343Z,7.85
2022-10-02T14:46:33.551Z,6.25
2022-10-02T14:49:18.819Z,7.50
2022-10-02T14:52:04.752Z,9.52
2022-10-02T14:54:34.279Z,9.07
2022-10-02T14:57:01.341Z,6.13
2022-10-02T15:00:09.454Z,11.80
2022-10-02T15:05:37.693Z,5.82
2022-10-02T15:08:15.874Z,4.70
2022-10-02T15:10:45.159Z,13.32
2022-10-02T15:13:53.434Z,7.97
2022-10-02T15:16:43.656Z,5.03
2022-10-02T15:19:27.511Z,6.18
2022-10-02T15:22:14.709Z,10.45
2022-10-02T15:24:46.948Z,5.78
2022-10-02T15:27:19.550Z,7.95
2022-10-02T15:30:15.352Z,8.32
2022-10-02T15:33:07.449Z,13.02
2022-10-02T15:35:49.133Z,13.73
2022-10-02T15:38:30.790Z,10.80
2022-10-02T15:41:12.652Z,10.60
2022-10-02T15:43:48.300Z,7.90
2022-10-02T15:46:33.479Z,9.18
2022-10-02T15:49:24.840Z,7.05
2022-10-02T15:52:09.266Z,6.03
2022-10-02T15:54:50.776Z,7.80
2022-10-02T15:57:41.777Z,5.35
2022-10-02T16:00:08.260Z,8.20
2022-10-02T16:02:34.847Z,11.70
2022-10-02T16:05:39.092Z,9.07
2022-10-02T16:08:05.595Z,12.27
2022-10-02T16:10:59.993Z,7.13
2022-10-02T16:13:47.059Z,13.13
2022-10-02T16:16:41.799Z,9.10
2022-10-02T16:19:27.404Z,5.53
2022-10-02T16:22:10.125Z,10.10
2022-10-02T16:25:10.496Z,7.55
2022-10-02T16:27:55.324Z,13.82
2022-10-02T16:30:25.741Z,11.55
2022-10-02T16:33:38.886Z,7.47
2022-10-02T16:36:31.856Z,8.25
2022-10-02T16:39:43.335Z,9.00
2022-10-02T16:42:20.190Z,11.57
2022-10-02T16:44:49.609Z,7.80
2022-10-02T16:47:44.144Z,7.75
2022-10-02T16:50:28.904Z,5.55
2022-10-02T16:53:12.945Z,11.88
2022-10-02T16:55:45.543Z,9.85
2022-10-02T16:58:26.118Z,7.43
2022-10-02T17:01:05.256Z,6.63
2022-10-02T17:03:35.783Z,13.27
2022-10-02T17:06:21.181Z,8.25
2022-10-02T17:08:53.926Z,8.77
2022-10-02T17:11:24.199Z,6.35
2022-10-02T17:14:06.463Z,7.70
2022-10-02T17:16:39.616Z,7.63
2022-10-02T17:19:24.657Z,5.35
2022-10-02T17:22:11.502Z,7.20
2022-10-02T17:25:02.302Z,6.88
2022-10-02T17:27:35.241Z,7.03
2022-10-02T17:30:04.602Z,7.28
2022-10-02T17:32:39.128Z,4.82
2022-10-02T17:35:38.988Z,12.38
2022-10-02T17:38:20.629Z,8.15
2022-10-02T17:41:08.497Z,8.68
2022-10-02T17:43:41.110Z,11.52
2022-10-02T17:46:19.633Z,5.32
2022-10-02T17:51:51.415Z,7.25
2022-10-02T17:54:44.345Z,10.15
2022-10-02T17:57:34.276Z,9.20
2022-10-02T18:00:21.933Z,6.68
2022-10-02T18:03:12.872Z,7.47
2022-10-02T18:05:59.436Z,8.85
2022-10-02T18:08:30.750Z,7.28
2022-10-02T18:11:07.103Z,8.18
2022-10-02T18:13:48.701Z,8.25
2022-10-02T18:16:23.939Z,7.97
2022-10-02T18:19:10.857Z,6.97
2022-10-02T18:21:40.232Z,8.40
2022-10-02T18:24:14.979Z,15.93
2022-10-02T18:26:53.850Z,10.00
2022-10-02T18:29:45.383Z,6.63
2022-10-02T18:32:15.060Z,9.88
2022-10-02T18:35:15.768Z,10.10
2022-10-02T18:37:50.238Z,8.73
2022-10-02T18:40:54.999Z,5.70
2022-10-02T18:43:30.474Z,9.95
2022-10-02T18:46:06.877Z,9.63
2022-10-02T18:48:52.176Z,5.68
2022-10-02T18:51:48.416Z,14.00
2022-10-02T18:54:24.882Z,10.55
2022-10-02T18:57:14.120Z,8.30
2022-10-02T19:00:08.900Z,10.77
2022-10-02T19:02:46.356Z,9.63
2022-10-02T19:05:36.803Z,12.95
2022-10-02T19:08:03.307Z,10.52
2022-10-02T19:10:32.930Z,10.13
2022-10-02T19:13:27.172Z,11.32
2022-10-02T19:15:55.881Z,11.88
2022-10-02T19:18:29.887Z,9.30
2022-10-02T19:20:56.433Z,12.40
2022-10-02T19:23:49.476Z,10.40
2022-10-02T19:26:33.140Z,7.47
2022-10-02T19:29:04.222Z,12.38
2022-10-02T19:31:35.753Z,12.00
2022-10-02T19:34:05.920Z,11.48
2022-10-02T19:36:38.146Z,8.18
2022-10-02T19:39:07.777Z,13.05
2022-10-02T19:41:41.954Z,15.48
2022-10-02T19:44:18.195Z,8.68
2022-10-02T19:46:48.633Z,11.52
2022-10-02T19:49:24.993Z,17.90
2022-10-02T19:51:52.978Z,13.20
2022-10-02T19:54:24.581Z,7.15
2022-10-02T19:56:56.556Z,10.38
2022-10-02T19:59:41.899Z,13.10
2022-10-02T20:02:27.419Z,8.63
2022-10-02T20:04:58.734Z,14.13
2022-10-02T20:07:26.753Z,9.10
2022-10-02T20:09:56.389Z,10.45
2022-10-02T20:12:36.426Z,9.43
2022-10-02T20:15:12.357Z,17.08
2022-10-02T20:17:39.204Z,11.38
2022-10-02T20:20:11.821Z,8.88
2022-10-02T20:22:56.669Z,9.25
2022-10-02T20:25:32.477Z,12.07
2022-10-02T20:27:59.048Z,8.48
2022-10-02T20:30:31.113Z,8.10
2022-10-02T20:33:16.136Z,6.72
2022-10-02T20:35:51.181Z,9.73
2022-10-02T20:38:35.185Z,6.95
2022-10-02T20:41:07.904Z,5.63
2022-10-02T20:43:38.788Z,6.10
2022-10-02T20:46:24.171Z,7.30
2022-10-02T20:49:09.683Z,12.77
2022-10-02T20:51:57.604Z,7.97
2022-10-02T20:54:43.750Z,3.95
2022-10-02T20:57:20.300Z,4.35
2022-10-02T20:59:59.097Z,12.38
2022-10-02T21:02:59.652Z,6.13
2022-10-02T21:05:54.940Z,10.07
2022-10-02T21:08:47.060Z,4.90
2022-10-02T21:11:17.120Z,6.88
2022-10-02T21:13:58.866Z,7.35
2022-10-02T21:16:49.842Z,6.75
2022-10-02T21:19:38.381Z,5.55
2022-10-02T21:22:38.452Z,8.82
2022-10-02T21:25:23.352Z,11.00
2022-10-02T21:27:56.945Z,7.15
2022-10-02T21:30:28.974Z,9.48
2022-10-02T21:33:05.371Z,11.75
2022-10-02T21:35:37.678Z,11.70
2022-10-02T21:38:28.072Z,17.48
2022-10-02T21:41:19.666Z,20.10
2022-10-02T21:44:00.229Z,9.63
2022-10-02T21:46:48.652Z,13.32
2022-10-02T21:52:03.212Z,16.48
2022-10-02T21:55:11.436Z,12.55
2022-10-02T22:00:16.222Z,14.52
2022-10-02T22:03:11.526Z,15.27
2022-10-02T22:05:41.062Z,13.70
2022-10-02T22:08:28.648Z,16.40
2022-10-02T22:11:14.674Z,12.18
2022-10-02T22:13:45.592Z,14.45
2022-10-02T22:16:42.743Z,11.40
2022-10-02T22:19:31.892Z,13.48
2022-10-02T22:22:07.320Z,13.43
2022-10-02T22:24:48.143Z,13.90
2022-10-02T22:27:24.937Z,15.52
2022-10-02T22:29:54.991Z,15.00
2022-10-02T22:32:49.117Z,15.88
2022-10-02T22:35:24.367Z,16.90
2022-10-02T22:38:13.660Z,7.32
2022-10-02T22:40:52.930Z,12.18
2022-10-02T22:43:44.778Z,9.45
2022-10-02T22:46:22.632Z,8.98
2022-10-02T22:48:58.134Z,16.15
2022-10-02T22:51:35.168Z,14.05
2022-10-02T22:54:18.888Z,9.18
2022-10-02T22:57:03.775Z,12.60
2022-10-02T22:59:46.081Z,16.30
2022-10-02T23:02:44.137Z,18.13
2022-10-02T23:05:14.943Z,18.52
2022-10-02T23:07:42.737Z,18.60
2022-10-02T23:10:09.220Z,16.15
2022-10-02T23:12:45.034Z,16.00
2022-10-02T23:15:26.821Z,8.80
2022-10-02T23:17:56.263Z,8.52
2022-10-02T23:20:37.641Z,12.73
2022-10-02T23:23:04.193Z,17.58
2022-10-02T23:25:41.334Z,11.65
2022-10-02T23:28:24.563Z,12.07
2022-10-02T23:31:02.446Z,13.18
2022-10-02T23:33:58.594Z,14.52
2022-10-02T23:36:27.186Z,10.73
2022-10-02T23:41:39.386Z,15.90
2022-10-02T23:44:43.772Z,13.80
2022-10-02T23:47:23.448Z,14.82
2022-10-02T23:49:57.879Z,18.15
2022-10-02T23:53:02.672Z,12.05
2022-10-02T23:56:03.471Z,14.85
2022-10-02T23:58:44.105Z,11.40
